Taumarunui, New Zealand
Current Conditions -  °F | °C
As of 7:00 PM on Saturday 20 Dec 2014 (Local Time) from NZAA Reporting Station
Light Rain Light Rain  
Wind Chill: 68°   Ceiling: 700
Heat Index: 68°   Visibility: 6mi
Dew Point: 68°   Wind: 17mph
Humidity: 100%   Direction: 20°NNE
Pressure: 29.85"   Gusts: NA
Location:  38.88°S, 175.27°E
Report Text: NZAA 200700Z AUTO 02015KT 9999 -RA OVC007/// 20/20 Q1011 RERATEMPO 4000 RA FEW020TCU
Loading
Personal Weather Stations






























Interactive Weather Map New forecast layout! Learn more

10-Day Weather Forecast

Advertisements
Track Severe Weather on mobile